logo
Search for airport 
image banner adimage banner adimage banner ad
image banner ad

SJ86 - Fortim

Located in Fortim, Brazil

ICAO - SJ86, IATA -

Data provided by Airmate  

General information

Coordinates: S4°25'50" W37°46'45"
Elevation is 85 feet MSL.
Magnetic variation is -20.683333333° East
View others Airports in Ceará

Operational data

Special qualification required
Current time UTC:
Current local time:
Weather at : - ( 0 km )
METAR: UWWW 171634Z 14006MPS 9999 VCTS FEW033CB 29/18 Q1014 R15/290152 NOSIG RMK QFE749/0998
View NOTAMs / SUP AIP / TFR affecting this airport [VIEW]
Communications frequencies: [VIEW]

Runways:

Airport contact information

Address: Fortim Brazil

Satellite view of SJ86